sensor_id;sensor_type;location;lat;lon;timestamp;pressure;altitude;pressure_sealevel;temperature;humidity
3142;BME280;1581;51.568;6.998;2023-01-29T00:00:09;102317.19;;;-0.40;100.00
3142;BME280;1581;51.568;6.998;2023-01-29T00:02:38;102316.50;;;-0.44;100.00
3142;BME280;1581;51.568;6.998;2023-01-29T00:05:07;102312.81;;;-0.57;100.00
3142;BME280;1581;51.568;6.998;2023-01-29T00:07:35;102317.81;;;-0.52;100.00
3142;BME280;1581;51.568;6.998;2023-01-29T00:10:03;102318.25;;;-0.44;100.00
3142;BME280;1581;51.568;6.998;2023-01-29T00:12:31;102315.84;;;-0.64;100.00
3142;BME280;1581;51.568;6.998;2023-01-29T00:14:59;102320.00;;;-0.60;100.00
3142;BME280;1581;51.568;6.998;2023-01-29T00:17:27;102319.16;;;-0.78;100.00
3142;BME280;1581;51.568;6.998;2023-01-29T00:19:56;102310.28;;;-0.90;100.00
3142;BME280;1581;51.568;6.998;2023-01-29T00:22:23;102291.53;;;-0.83;100.00
3142;BME280;1581;51.568;6.998;2023-01-29T00:24:51;102307.50;;;-1.04;100.00
3142;BME280;1581;51.568;6.998;2023-01-29T00:27:19;102302.41;;;-1.07;100.00
3142;BME280;1581;51.568;6.998;2023-01-29T00:29:47;102303.63;;;-0.97;100.00
3142;BME280;1581;51.568;6.998;2023-01-29T00:32:34;102301.03;;;-0.97;100.00
3142;BME280;1581;51.568;6.998;2023-01-29T00:35:04;102302.72;;;-0.96;100.00
3142;BME280;1581;51.568;6.998;2023-01-29T00:37:32;102295.88;;;-0.99;100.00
3142;BME280;1581;51.568;6.998;2023-01-29T00:40:00;102303.03;;;-1.02;100.00
3142;BME280;1581;51.568;6.998;2023-01-29T00:42:27;102301.94;;;-0.98;100.00
3142;BME280;1581;51.568;6.998;2023-01-29T00:45:12;102295.19;;;-1.02;100.00
3142;BME280;1581;51.568;6.998;2023-01-29T00:47:40;102296.34;;;-1.08;100.00
3142;BME280;1581;51.568;6.998;2023-01-29T00:50:11;102298.34;;;-1.13;100.00
3142;BME280;1581;51.568;6.998;2023-01-29T00:52:39;102314.72;;;-1.09;100.00
3142;BME280;1581;51.568;6.998;2023-01-29T00:55:09;102304.25;;;-1.26;100.00
3142;BME280;1581;51.568;6.998;2023-01-29T00:57:38;102302.88;;;-1.16;100.00
3142;BME280;1581;51.568;6.998;2023-01-29T01:00:10;102314.91;;;-1.12;100.00
3142;BME280;1581;51.568;6.998;2023-01-29T01:02:38;102304.50;;;-1.31;100.00
3142;BME280;1581;51.568;6.998;2023-01-29T01:05:25;102298.66;;;-1.19;100.00
3142;BME280;1581;51.568;6.998;2023-01-29T01:07:55;102300.28;;;-1.16;100.00
3142;BME280;1581;51.568;6.998;2023-01-29T01:10:26;102297.44;;;-1.29;100.00
3142;BME280;1581;51.568;6.998;2023-01-29T01:12:55;102290.19;;;-1.24;100.00
3142;BME280;1581;51.568;6.998;2023-01-29T01:15:26;102290.34;;;-1.27;100.00
3142;BME280;1581;51.568;6.998;2023-01-29T01:17:56;102281.59;;;-1.26;100.00
3142;BME280;1581;51.568;6.998;2023-01-29T01:20:28;102280.19;;;-1.33;100.00
3142;BME280;1581;51.568;6.998;2023-01-29T01:22:56;102272.75;;;-1.23;100.00
3142;BME280;1581;51.568;6.998;2023-01-29T01:25:26;102270.97;;;-1.23;100.00
3142;BME280;1581;51.568;6.998;2023-01-29T01:27:55;102255.44;;;-1.26;100.00
3142;BME280;1581;51.568;6.998;2023-01-29T01:30:24;102259.34;;;-1.17;100.00
3142;BME280;1581;51.568;6.998;2023-01-29T01:32:52;102257.03;;;-1.06;100.00
3142;BME280;1581;51.568;6.998;2023-01-29T01:35:20;102257.72;;;-1.03;100.00
3142;BME280;1581;51.568;6.998;2023-01-29T01:37:49;102260.03;;;-1.14;100.00
3142;BME280;1581;51.568;6.998;2023-01-29T01:40:19;102263.81;;;-1.19;100.00
3142;BME280;1581;51.568;6.998;2023-01-29T01:42:48;102264.22;;;-1.27;100.00
3142;BME280;1581;51.568;6.998;2023-01-29T01:45:24;102268.56;;;-1.27;100.00
3142;BME280;1581;51.568;6.998;2023-01-29T01:47:57;102270.34;;;-1.28;100.00
3142;BME280;1581;51.568;6.998;2023-01-29T01:50:34;102270.66;;;-1.17;100.00
3142;BME280;1581;51.568;6.998;2023-01-29T01:53:07;102276.25;;;-1.07;100.00
3142;BME280;1581;51.568;6.998;2023-01-29T01:55:39;102273.66;;;-1.07;100.00
3142;BME280;1581;51.568;6.998;2023-01-29T01:58:21;102276.25;;;-1.07;100.00
3142;BME280;1581;51.568;6.998;2023-01-29T02:00:51;102271.22;;;-1.10;100.00
3142;BME280;1581;51.568;6.998;2023-01-29T02:03:19;102277.41;;;-1.13;100.00
3142;BME280;1581;51.568;6.998;2023-01-29T02:06:06;102282.19;;;-1.04;100.00
3142;BME280;1581;51.568;6.998;2023-01-29T02:08:56;102273.34;;;-1.18;100.00
3142;BME280;1581;51.568;6.998;2023-01-29T02:11:42;102274.34;;;-1.21;100.00
3142;BME280;1581;51.568;6.998;2023-01-29T02:14:10;102266.81;;;-1.10;100.00
3142;BME280;1581;51.568;6.998;2023-01-29T02:16:38;102269.81;;;-1.17;100.00
3142;BME280;1581;51.568;6.998;2023-01-29T02:19:23;102272.88;;;-1.09;100.00
3142;BME280;1581;51.568;6.998;2023-01-29T02:28:11;102282.25;;;-1.05;100.00
3142;BME280;1581;51.568;6.998;2023-01-29T02:30:46;102281.34;;;-1.04;100.00
3142;BME280;1581;51.568;6.998;2023-01-29T02:33:25;102277.66;;;-1.17;100.00
3142;BME280;1581;51.568;6.998;2023-01-29T02:36:04;102269.09;;;-1.04;100.00
3142;BME280;1581;51.568;6.998;2023-01-29T02:38:44;102269.94;;;-0.87;100.00
3142;BME280;1581;51.568;6.998;2023-01-29T02:41:22;102269.34;;;-0.91;100.00
3142;BME280;1581;51.568;6.998;2023-01-29T02:43:59;102260.56;;;-0.90;100.00
3142;BME280;1581;51.568;6.998;2023-01-29T02:46:34;102267.63;;;-1.09;100.00
3142;BME280;1581;51.568;6.998;2023-01-29T02:49:09;102272.50;;;-1.19;100.00
3142;BME280;1581;51.568;6.998;2023-01-29T02:51:43;102276.50;;;-1.12;100.00
3142;BME280;1581;51.568;6.998;2023-01-29T02:54:19;102276.44;;;-1.10;100.00
3142;BME280;1581;51.568;6.998;2023-01-29T02:56:52;102262.78;;;-1.00;100.00
3142;BME280;1581;51.568;6.998;2023-01-29T02:59:25;102270.34;;;-1.28;100.00
3142;BME280;1581;51.568;6.998;2023-01-29T03:01:57;102281.19;;;-1.18;100.00
3142;BME280;1581;51.568;6.998;2023-01-29T03:04:32;102269.81;;;-1.00;100.00
3142;BME280;1581;51.568;6.998;2023-01-29T03:07:08;102266.47;;;-0.87;100.00
3142;BME280;1581;51.568;6.998;2023-01-29T03:09:50;102262.59;;;-0.80;100.00
3142;BME280;1581;51.568;6.998;2023-01-29T03:12:25;102265.13;;;-0.79;100.00
3142;BME280;1581;51.568;6.998;2023-01-29T03:15:02;102262.56;;;-0.63;100.00
3142;BME280;1581;51.568;6.998;2023-01-29T03:17:46;102279.22;;;-0.81;100.00
3142;BME280;1581;51.568;6.998;2023-01-29T03:20:18;102288.44;;;-0.74;100.00
3142;BME280;1581;51.568;6.998;2023-01-29T03:22:55;102284.84;;;-0.72;100.00
3142;BME280;1581;51.568;6.998;2023-01-29T03:25:27;102293.09;;;-0.79;100.00
3142;BME280;1581;51.568;6.998;2023-01-29T03:28:16;102279.91;;;-0.78;100.00
3142;BME280;1581;51.568;6.998;2023-01-29T03:31:06;102277.53;;;-0.82;100.00
3142;BME280;1581;51.568;6.998;2023-01-29T03:33:58;102279.84;;;-0.76;100.00
3142;BME280;1581;51.568;6.998;2023-01-29T03:36:32;102280.94;;;-0.80;100.00
3142;BME280;1581;51.568;6.998;2023-01-29T03:39:05;102277.53;;;-0.82;100.00
3142;BME280;1581;51.568;6.998;2023-01-29T03:41:37;102274.25;;;-0.86;100.00
3142;BME280;1581;51.568;6.998;2023-01-29T03:44:14;102280.16;;;-0.82;100.00
3142;BME280;1581;51.568;6.998;2023-01-29T03:46:51;102283.47;;;-0.79;100.00
3142;BME280;1581;51.568;6.998;2023-01-29T03:49:31;102277.91;;;-0.73;100.00
3142;BME280;1581;51.568;6.998;2023-01-29T03:52:10;102275.22;;;-0.71;100.00
3142;BME280;1581;51.568;6.998;2023-01-29T03:54:53;102272.34;;;-0.67;100.00
3142;BME280;1581;51.568;6.998;2023-01-29T03:57:32;102268.22;;;-0.71;100.00
3142;BME280;1581;51.568;6.998;2023-01-29T04:00:07;102275.84;;;-0.66;100.00
3142;BME280;1581;51.568;6.998;2023-01-29T04:02:48;102271.63;;;-0.53;100.00
3142;BME280;1581;51.568;6.998;2023-01-29T04:05:21;102266.47;;;-0.55;100.00
3142;BME280;1581;51.568;6.998;2023-01-29T04:07:55;102257.69;;;-0.54;100.00
3142;BME280;1581;51.568;6.998;2023-01-29T04:10:27;102253.28;;;-0.53;100.00
3142;BME280;1581;51.568;6.998;2023-01-29T04:12:59;102241.66;;;-0.48;100.00
3142;BME280;1581;51.568;6.998;2023-01-29T04:15:32;102238.78;;;-0.43;100.00
3142;BME280;1581;51.568;6.998;2023-01-29T04:18:03;102238.72;;;-0.74;100.00
3142;BME280;1581;51.568;6.998;2023-01-29T04:20:30;102222.47;;;-0.64;100.00
3142;BME280;1581;51.568;6.998;2023-01-29T04:22:58;102220.53;;;-0.60;100.00
3142;BME280;1581;51.568;6.998;2023-01-29T04:25:30;102223.06;;;-0.59;100.00
3142;BME280;1581;51.568;6.998;2023-01-29T04:28:06;102228.00;;;-0.37;100.00
3142;BME280;1581;51.568;6.998;2023-01-29T04:30:45;102228.50;;;-0.46;100.00
3142;BME280;1581;51.568;6.998;2023-01-29T04:33:28;102238.53;;;-0.23;100.00
3142;BME280;1581;51.568;6.998;2023-01-29T04:36:14;102230.41;;;-0.50;100.00
3142;BME280;1581;51.568;6.998;2023-01-29T04:38:56;102233.75;;;-0.31;100.00
3142;BME280;1581;51.568;6.998;2023-01-29T04:41:31;102229.84;;;-0.39;100.00
3142;BME280;1581;51.568;6.998;2023-01-29T04:44:08;102227.28;;;-0.72;100.00
3142;BME280;1581;51.568;6.998;2023-01-29T04:46:47;102212.03;;;-0.96;100.00
3142;BME280;1581;51.568;6.998;2023-01-29T04:49:31;102203.25;;;-0.95;100.00
3142;BME280;1581;51.568;6.998;2023-01-29T04:52:07;102199.53;;;-0.91;100.00
3142;BME280;1581;51.568;6.998;2023-01-29T04:54:49;102200.34;;;-1.06;100.00
3142;BME280;1581;51.568;6.998;2023-01-29T04:57:24;102213.19;;;-1.01;100.00
3142;BME280;1581;51.568;6.998;2023-01-29T05:00:02;102211.09;;;-0.95;100.00
3142;BME280;1581;51.568;6.998;2023-01-29T05:02:35;102196.09;;;-0.91;100.00
3142;BME280;1581;51.568;6.998;2023-01-29T05:05:07;102195.31;;;-0.93;100.00
3142;BME280;1581;51.568;6.998;2023-01-29T05:07:37;102196.31;;;-0.96;100.00
3142;BME280;1581;51.568;6.998;2023-01-29T05:10:08;102186.72;;;-0.80;100.00
3142;BME280;1581;51.568;6.998;2023-01-29T05:12:38;102181.06;;;-0.88;100.00
3142;BME280;1581;51.568;6.998;2023-01-29T05:15:12;102178.28;;;-0.85;100.00
3142;BME280;1581;51.568;6.998;2023-01-29T05:17:42;102171.34;;;-1.01;100.00
3142;BME280;1581;51.568;6.998;2023-01-29T05:20:12;102169.56;;;-0.86;100.00
3142;BME280;1581;51.568;6.998;2023-01-29T05:22:40;102168.00;;;-0.73;100.00
3142;BME280;1581;51.568;6.998;2023-01-29T05:25:21;102176.19;;;-0.63;100.00
3142;BME280;1581;51.568;6.998;2023-01-29T05:27:50;102169.25;;;-0.64;100.00
3142;BME280;1581;51.568;6.998;2023-01-29T05:30:29;102164.97;;;-0.65;100.00
3142;BME280;1581;51.568;6.998;2023-01-29T05:32:57;102169.44;;;-0.83;100.00
3142;BME280;1581;51.568;6.998;2023-01-29T05:35:26;102157.66;;;-0.91;100.00
3142;BME280;1581;51.568;6.998;2023-01-29T05:37:55;102161.59;;;-0.52;100.00
3142;BME280;1581;51.568;6.998;2023-01-29T05:40:23;102167.41;;;-0.47;100.00
3142;BME280;1581;51.568;6.998;2023-01-29T05:42:51;102167.13;;;-0.73;100.00
3142;BME280;1581;51.568;6.998;2023-01-29T05:45:19;102165.13;;;-0.68;100.00
3142;BME280;1581;51.568;6.998;2023-01-29T05:47:47;102173.41;;;-0.60;100.00
3142;BME280;1581;51.568;6.998;2023-01-29T05:50:15;102185.91;;;-0.50;100.00
3142;BME280;1581;51.568;6.998;2023-01-29T05:52:44;102190.56;;;-0.39;100.00
3142;BME280;1581;51.568;6.998;2023-01-29T05:55:12;102187.09;;;-0.71;100.00
3142;BME280;1581;51.568;6.998;2023-01-29T05:57:40;102192.25;;;-0.54;100.00
3142;BME280;1581;51.568;6.998;2023-01-29T06:00:09;102188.88;;;-0.40;100.00
3142;BME280;1581;51.568;6.998;2023-01-29T06:02:38;102194.00;;;-0.54;100.00
3142;BME280;1581;51.568;6.998;2023-01-29T06:05:06;102192.75;;;-0.63;100.00
3142;BME280;1581;51.568;6.998;2023-01-29T06:07:34;102195.53;;;-0.50;100.00
3142;BME280;1581;51.568;6.998;2023-01-29T06:10:04;102200.78;;;-0.50;100.00
3142;BME280;1581;51.568;6.998;2023-01-29T06:12:31;102207.31;;;-0.42;100.00
3142;BME280;1581;51.568;6.998;2023-01-29T06:14:59;102205.34;;;-0.54;100.00
3142;BME280;1581;51.568;6.998;2023-01-29T06:17:27;102204.41;;;-0.53;100.00
3142;BME280;1581;51.568;6.998;2023-01-29T06:19:54;102214.69;;;-0.50;100.00
3142;BME280;1581;51.568;6.998;2023-01-29T06:22:22;102215.41;;;-0.46;100.00
3142;BME280;1581;51.568;6.998;2023-01-29T06:24:49;102216.38;;;-0.49;100.00
3142;BME280;1581;51.568;6.998;2023-01-29T06:27:19;102215.84;;;-0.23;100.00
3142;BME280;1581;51.568;6.998;2023-01-29T06:29:46;102209.72;;;-0.23;100.00
3142;BME280;1581;51.568;6.998;2023-01-29T06:32:14;102202.78;;;-0.09;100.00
3142;BME280;1581;51.568;6.998;2023-01-29T06:34:42;102198.00;;;0.28;100.00
3142;BME280;1581;51.568;6.998;2023-01-29T06:37:09;102194.50;;;0.14;100.00
3142;BME280;1581;51.568;6.998;2023-01-29T06:39:37;102193.69;;;-0.02;100.00
3142;BME280;1581;51.568;6.998;2023-01-29T06:42:05;102194.25;;;-0.12;100.00
3142;BME280;1581;51.568;6.998;2023-01-29T06:44:34;102198.00;;;-0.16;100.00
3142;BME280;1581;51.568;6.998;2023-01-29T06:47:01;102194.34;;;0.01;100.00
3142;BME280;1581;51.568;6.998;2023-01-29T06:49:29;102199.19;;;-0.22;100.00
3142;BME280;1581;51.568;6.998;2023-01-29T06:51:57;102199.88;;;-0.34;100.00
3142;BME280;1581;51.568;6.998;2023-01-29T06:54:25;102190.31;;;-0.35;100.00
3142;BME280;1581;51.568;6.998;2023-01-29T06:56:52;102193.03;;;-0.52;100.00
3142;BME280;1581;51.568;6.998;2023-01-29T06:59:21;102206.53;;;-0.44;100.00
3142;BME280;1581;51.568;6.998;2023-01-29T07:01:50;102205.34;;;-0.38;100.00
3142;BME280;1581;51.568;6.998;2023-01-29T07:04:18;102202.13;;;-0.43;100.00
3142;BME280;1581;51.568;6.998;2023-01-29T07:06:45;102198.31;;;-0.53;100.00
3142;BME280;1581;51.568;6.998;2023-01-29T07:09:13;102199.19;;;-0.37;100.00
3142;BME280;1581;51.568;6.998;2023-01-29T07:11:42;102198.72;;;0.01;100.00
3142;BME280;1581;51.568;6.998;2023-01-29T07:14:09;102199.50;;;-0.28;100.00
3142;BME280;1581;51.568;6.998;2023-01-29T07:16:38;102198.41;;;-0.24;100.00
3142;BME280;1581;51.568;6.998;2023-01-29T07:19:07;102203.41;;;0.25;100.00
3142;BME280;1581;51.568;6.998;2023-01-29T07:21:36;102199.91;;;-0.20;100.00
3142;BME280;1581;51.568;6.998;2023-01-29T07:24:04;102193.84;;;-0.20;100.00
3142;BME280;1581;51.568;6.998;2023-01-29T07:26:32;102194.94;;;-0.24;100.00
3142;BME280;1581;51.568;6.998;2023-01-29T07:29:00;102205.59;;;0.03;100.00
3142;BME280;1581;51.568;6.998;2023-01-29T07:31:27;102206.69;;;-0.01;100.00
3142;BME280;1581;51.568;6.998;2023-01-29T07:33:56;102212.34;;;-0.08;100.00
3142;BME280;1581;51.568;6.998;2023-01-29T07:36:25;102209.03;;;0.04;100.00
3142;BME280;1581;51.568;6.998;2023-01-29T07:38:53;102198.84;;;-0.31;100.00
3142;BME280;1581;51.568;6.998;2023-01-29T07:41:21;102205.50;;;-0.10;100.00
3142;BME280;1581;51.568;6.998;2023-01-29T07:43:51;102204.41;;;-0.06;100.00
3142;BME280;1581;51.568;6.998;2023-01-29T07:46:19;102205.66;;;0.02;100.00
3142;BME280;1581;51.568;6.998;2023-01-29T07:48:47;102203.31;;;-0.18;100.00
3142;BME280;1581;51.568;6.998;2023-01-29T07:51:15;102197.72;;;0.19;100.00
3142;BME280;1581;51.568;6.998;2023-01-29T07:53:44;102199.16;;;0.09;100.00
3142;BME280;1581;51.568;6.998;2023-01-29T07:56:13;102207.31;;;0.18;100.00
3142;BME280;1581;51.568;6.998;2023-01-29T07:58:40;102191.63;;;0.03;100.00
3142;BME280;1581;51.568;6.998;2023-01-29T08:01:08;102192.78;;;0.13;100.00
3142;BME280;1581;51.568;6.998;2023-01-29T08:03:44;102195.69;;;0.08;100.00
3142;BME280;1581;51.568;6.998;2023-01-29T08:06:12;102190.81;;;0.02;100.00
3142;BME280;1581;51.568;6.998;2023-01-29T08:08:40;102188.13;;;0.33;100.00
3142;BME280;1581;51.568;6.998;2023-01-29T08:11:09;102199.47;;;0.18;100.00
3142;BME280;1581;51.568;6.998;2023-01-29T08:13:37;102196.91;;;0.32;100.00
3142;BME280;1581;51.568;6.998;2023-01-29T08:16:06;102186.44;;;0.46;100.00
3142;BME280;1581;51.568;6.998;2023-01-29T08:18:35;102181.47;;;0.12;100.00
3142;BME280;1581;51.568;6.998;2023-01-29T08:21:04;102179.88;;;0.10;100.00
3142;BME280;1581;51.568;6.998;2023-01-29T08:23:32;102174.00;;;0.20;100.00
3142;BME280;1581;51.568;6.998;2023-01-29T08:26:01;102180.03;;;0.36;100.00
3142;BME280;1581;51.568;6.998;2023-01-29T08:28:30;102175.91;;;0.03;100.00
3142;BME280;1581;51.568;6.998;2023-01-29T08:30:58;102174.00;;;0.20;100.00
3142;BME280;1581;51.568;6.998;2023-01-29T08:33:27;102174.50;;;0.70;100.00
3142;BME280;1581;51.568;6.998;2023-01-29T08:35:55;102172.59;;;0.44;100.00
3142;BME280;1581;51.568;6.998;2023-01-29T08:38:22;102160.72;;;0.53;100.00
3142;BME280;1581;51.568;6.998;2023-01-29T08:40:50;102161.25;;;0.44;100.00
3142;BME280;1581;51.568;6.998;2023-01-29T08:43:18;102152.72;;;0.40;100.00
3142;BME280;1581;51.568;6.998;2023-01-29T08:45:48;102148.91;;;0.46;100.00
3142;BME280;1581;51.568;6.998;2023-01-29T08:48:16;102143.69;;;0.60;100.00
3142;BME280;1581;51.568;6.998;2023-01-29T08:50:43;102154.19;;;0.60;100.00
3142;BME280;1581;51.568;6.998;2023-01-29T08:53:11;102150.81;;;0.72;100.00
3142;BME280;1581;51.568;6.998;2023-01-29T08:55:40;102149.56;;;0.49;100.00
3142;BME280;1581;51.568;6.998;2023-01-29T08:58:10;102149.97;;;0.85;100.00
3142;BME280;1581;51.568;6.998;2023-01-29T09:00:38;102154.63;;;0.66;100.00
3142;BME280;1581;51.568;6.998;2023-01-29T09:03:07;102150.81;;;0.58;100.00
3142;BME280;1581;51.568;6.998;2023-01-29T09:05:37;102138.97;;;0.37;100.00
3142;BME280;1581;51.568;6.998;2023-01-29T09:08:07;102136.22;;;0.68;100.00
3142;BME280;1581;51.568;6.998;2023-01-29T09:10:35;102139.56;;;0.83;100.00
3142;BME280;1581;51.568;6.998;2023-01-29T09:13:03;102136.41;;;0.79;100.00
3142;BME280;1581;51.568;6.998;2023-01-29T09:15:31;102127.19;;;0.72;100.00
3142;BME280;1581;51.568;6.998;2023-01-29T09:18:03;102135.53;;;0.78;100.00
3142;BME280;1581;51.568;6.998;2023-01-29T09:20:32;102126.00;;;0.91;100.00
3142;BME280;1581;51.568;6.998;2023-01-29T09:23:04;102128.03;;;0.86;100.00
3142;BME280;1581;51.568;6.998;2023-01-29T09:25:32;102124.13;;;0.93;100.00
3142;BME280;1581;51.568;6.998;2023-01-29T09:28:00;102117.09;;;0.93;100.00
3142;BME280;1581;51.568;6.998;2023-01-29T09:30:27;102120.53;;;1.08;100.00
3142;BME280;1581;51.568;6.998;2023-01-29T09:32:57;102120.66;;;1.06;100.00
3142;BME280;1581;51.568;6.998;2023-01-29T09:35:27;102125.97;;;1.19;100.00
3142;BME280;1581;51.568;6.998;2023-01-29T09:37:57;102129.69;;;1.43;100.00
3142;BME280;1581;51.568;6.998;2023-01-29T09:40:29;102129.88;;;1.40;100.00
3142;BME280;1581;51.568;6.998;2023-01-29T09:43:03;102124.56;;;1.13;100.00
3142;BME280;1581;51.568;6.998;2023-01-29T09:45:33;102122.06;;;0.98;100.00
3142;BME280;1581;51.568;6.998;2023-01-29T09:48:03;102113.44;;;1.10;100.00
3142;BME280;1581;51.568;6.998;2023-01-29T09:50:35;102125.41;;;1.28;100.00
3142;BME280;1581;51.568;6.998;2023-01-29T09:53:14;102122.88;;;1.12;100.00
3142;BME280;1581;51.568;6.998;2023-01-29T09:55:48;102121.94;;;1.13;100.00
3142;BME280;1581;51.568;6.998;2023-01-29T09:58:21;102121.94;;;1.13;100.00
3142;BME280;1581;51.568;6.998;2023-01-29T10:01:01;102128.66;;;1.45;100.00
3142;BME280;1581;51.568;6.998;2023-01-29T10:04:20;102120.13;;;1.42;100.00
3142;BME280;1581;51.568;6.998;2023-01-29T10:07:09;102123.63;;;1.28;100.00
3142;BME280;1581;51.568;6.998;2023-01-29T10:12:52;102128.41;;;1.22;100.00
3142;BME280;1581;51.568;6.998;2023-01-29T10:15:41;102123.59;;;1.42;100.00
3142;BME280;1581;51.568;6.998;2023-01-29T10:18:49;102129.63;;;1.70;100.00
3142;BME280;1581;51.568;6.998;2023-01-29T10:21:58;102124.16;;;1.33;100.00
3142;BME280;1581;51.568;6.998;2023-01-29T10:24:36;102130.38;;;1.72;100.00
3142;BME280;1581;51.568;6.998;2023-01-29T10:27:12;102122.94;;;1.39;100.00
3142;BME280;1581;51.568;6.998;2023-01-29T10:29:43;102124.00;;;1.22;100.00
3142;BME280;1581;51.568;6.998;2023-01-29T10:32:15;102118.59;;;1.52;100.00
3142;BME280;1581;51.568;6.998;2023-01-29T10:34:49;102112.06;;;1.45;100.00
3142;BME280;1581;51.568;6.998;2023-01-29T10:37:30;102109.00;;;1.65;100.00
3142;BME280;1581;51.568;6.998;2023-01-29T10:40:19;102106.38;;;1.65;100.00
3142;BME280;1581;51.568;6.998;2023-01-29T10:42:54;102097.81;;;1.61;100.00
3142;BME280;1581;51.568;6.998;2023-01-29T10:45:31;102091.09;;;1.83;100.00
3142;BME280;1581;51.568;6.998;2023-01-29T10:48:39;102080.81;;;1.93;100.00
3142;BME280;1581;51.568;6.998;2023-01-29T10:54:37;102086.03;;;2.32;100.00
3142;BME280;1581;51.568;6.998;2023-01-29T10:57:17;102091.47;;;2.16;100.00
3142;BME280;1581;51.568;6.998;2023-01-29T11:00:01;102081.72;;;1.79;100.00
3142;BME280;1581;51.568;6.998;2023-01-29T11:02:33;102074.91;;;1.89;100.00
3142;BME280;1581;51.568;6.998;2023-01-29T11:05:01;102070.41;;;1.91;100.00
3142;BME280;1581;51.568;6.998;2023-01-29T11:07:40;102062.47;;;2.30;100.00
3142;BME280;1581;51.568;6.998;2023-01-29T11:10:12;102061.00;;;2.51;100.00
3142;BME280;1581;51.568;6.998;2023-01-29T11:12:41;102056.13;;;2.08;100.00
3142;BME280;1581;51.568;6.998;2023-01-29T11:15:18;102045.97;;;1.77;100.00
3142;BME280;1581;51.568;6.998;2023-01-29T11:18:04;102043.84;;;1.69;100.00
3142;BME280;1581;51.568;6.998;2023-01-29T11:20:33;102037.94;;;2.05;100.00
3142;BME280;1581;51.568;6.998;2023-01-29T11:23:01;102034.53;;;1.78;100.00
3142;BME280;1581;51.568;6.998;2023-01-29T11:25:33;102035.84;;;2.22;100.00
3142;BME280;1581;51.568;6.998;2023-01-29T11:28:02;102038.78;;;2.30;100.00
3142;BME280;1581;51.568;6.998;2023-01-29T11:30:34;102035.97;;;2.46;100.00
3142;BME280;1581;51.568;6.998;2023-01-29T11:33:19;102025.41;;;1.83;100.00
3142;BME280;1581;51.568;6.998;2023-01-29T11:35:49;102025.28;;;1.85;100.00
3142;BME280;1581;51.568;6.998;2023-01-29T11:38:21;102020.91;;;1.98;100.00
3142;BME280;1581;51.568;6.998;2023-01-29T11:40:51;102009.22;;;2.02;100.00
3142;BME280;1581;51.568;6.998;2023-01-29T11:43:27;102002.00;;;2.18;100.00
3142;BME280;1581;51.568;6.998;2023-01-29T11:46:00;102002.00;;;2.18;100.00
3142;BME280;1581;51.568;6.998;2023-01-29T11:48:40;101990.09;;;2.25;100.00
3142;BME280;1581;51.568;6.998;2023-01-29T11:51:11;101993.25;;;2.42;100.00
3142;BME280;1581;51.568;6.998;2023-01-29T11:53:52;101996.28;;;2.36;100.00
3142;BME280;1581;51.568;6.998;2023-01-29T11:56:27;101988.53;;;2.22;100.00
3142;BME280;1581;51.568;6.998;2023-01-29T11:58:57;101994.25;;;1.90;100.00
3142;BME280;1581;51.568;6.998;2023-01-29T12:01:31;101984.72;;;2.01;100.00
3142;BME280;1581;51.568;6.998;2023-01-29T12:04:02;101977.03;;;2.36;100.00
3142;BME280;1581;51.568;6.998;2023-01-29T12:06:34;101968.59;;;2.55;100.00
3142;BME280;1581;51.568;6.998;2023-01-29T12:09:10;101962.44;;;2.19;100.00
3142;BME280;1581;51.568;6.998;2023-01-29T12:11:42;101953.50;;;2.34;100.00
3142;BME280;1581;51.568;6.998;2023-01-29T12:14:26;101945.06;;;2.29;100.00
3142;BME280;1581;51.568;6.998;2023-01-29T12:17:00;101943.06;;;2.20;100.00
3142;BME280;1581;51.568;6.998;2023-01-29T12:19:35;101930.31;;;2.39;100.00
3142;BME280;1581;51.568;6.998;2023-01-29T12:22:18;101920.97;;;2.23;100.00
3142;BME280;1581;51.568;6.998;2023-01-29T12:24:53;101905.91;;;2.37;100.00
3142;BME280;1581;51.568;6.998;2023-01-29T12:27:28;101903.97;;;2.64;100.00
3142;BME280;1581;51.568;6.998;2023-01-29T12:30:06;101897.84;;;3.10;100.00
3142;BME280;1581;51.568;6.998;2023-01-29T12:32:47;101897.44;;;2.93;100.00
3142;BME280;1581;51.568;6.998;2023-01-29T12:35:21;101900.06;;;3.16;100.00
3142;BME280;1581;51.568;6.998;2023-01-29T12:37:57;101890.28;;;2.59;100.00
3142;BME280;1581;51.568;6.998;2023-01-29T12:40:31;101883.69;;;2.77;100.00
3142;BME280;1581;51.568;6.998;2023-01-29T12:43:10;101878.50;;;3.22;100.00
3142;BME280;1581;51.568;6.998;2023-01-29T12:45:41;101879.13;;;3.26;100.00
3142;BME280;1581;51.568;6.998;2023-01-29T12:48:20;101877.06;;;2.95;100.00
3142;BME280;1581;51.568;6.998;2023-01-29T12:50:51;101877.41;;;2.67;100.00
3142;BME280;1581;51.568;6.998;2023-01-29T12:53:27;101877.19;;;2.93;100.00
3142;BME280;1581;51.568;6.998;2023-01-29T12:56:01;101862.97;;;2.96;100.00
3142;BME280;1581;51.568;6.998;2023-01-29T12:58:35;101867.47;;;2.83;100.00
3142;BME280;1581;51.568;6.998;2023-01-29T13:01:15;101865.03;;;3.03;100.00
3142;BME280;1581;51.568;6.998;2023-01-29T13:03:51;101859.28;;;3.33;100.00
3142;BME280;1581;51.568;6.998;2023-01-29T13:06:25;101859.34;;;3.65;100.00
3142;BME280;1581;51.568;6.998;2023-01-29T13:08:57;101858.34;;;3.55;100.00
3142;BME280;1581;51.568;6.998;2023-01-29T13:11:33;101852.69;;;2.93;100.00
3142;BME280;1581;51.568;6.998;2023-01-29T13:14:12;101846.69;;;2.67;100.00
3142;BME280;1581;51.568;6.998;2023-01-29T13:16:48;101841.91;;;2.49;100.00
3142;BME280;1581;51.568;6.998;2023-01-29T13:19:25;101833.63;;;2.43;100.00
3142;BME280;1581;51.568;6.998;2023-01-29T13:21:58;101829.16;;;2.79;100.00
3142;BME280;1581;51.568;6.998;2023-01-29T13:24:33;101832.84;;;3.00;100.00
3142;BME280;1581;51.568;6.998;2023-01-29T13:27:03;101836.03;;;2.92;100.00
3142;BME280;1581;51.568;6.998;2023-01-29T13:29:32;101830.50;;;3.19;100.00
3142;BME280;1581;51.568;6.998;2023-01-29T13:32:01;101837.00;;;3.37;100.00
3142;BME280;1581;51.568;6.998;2023-01-29T13:34:33;101831.00;;;2.89;100.00
3142;BME280;1581;51.568;6.998;2023-01-29T13:37:08;101835.13;;;3.04;100.00
3142;BME280;1581;51.568;6.998;2023-01-29T13:39:39;101828.94;;;2.82;100.00
3142;BME280;1581;51.568;6.998;2023-01-29T13:42:19;101835.50;;;2.41;100.00
3142;BME280;1581;51.568;6.998;2023-01-29T13:44:49;101833.78;;;2.29;100.00
3142;BME280;1581;51.568;6.998;2023-01-29T13:47:24;101829.22;;;2.31;100.00